Time;durP1;ratioP1;P1;durP2;ratioP2;P2;SDS_P1;SDS_P2;PMS_P1;PMS_P2;Temp;Humidity;BMP_temperature;BMP_pressure;BME280_temperature;BME280_humidity;BME280_pressure;Samples;Min_cycle;Max_cycle;Signal;HPM_P1;HPM_P2
2023/10/31 00:00:46;;;;;;;28.30;14.57;;;;;;;10.84;100.00;98989.97;6117130;23;20207;-71
2023/10/31 00:03:12;;;;;;;33.40;15.20;;;;;;;10.77;100.00;98983.63;6116256;23;20238;-73
2023/10/31 00:05:41;;;;;;;33.17;14.13;;;;;;;10.73;100.00;98974.19;6119649;23;20582;-70
2023/10/31 00:08:08;;;;;;;26.77;13.73;;;;;;;10.73;100.00;98985.00;6115294;23;20215;-70
2023/10/31 00:10:34;;;;;;;27.30;13.37;;;;;;;10.78;100.00;98977.19;6116698;23;20218;-69
2023/10/31 00:13:01;;;;;;;30.87;13.97;;;;;;;10.75;100.00;98977.56;6116555;23;20607;-70
2023/10/31 00:15:30;;;;;;;29.03;13.30;;;;;;;10.71;100.00;98982.50;6116395;23;20273;-69
2023/10/31 00:17:57;;;;;;;33.90;14.13;;;;;;;10.67;100.00;98975.78;6111485;23;20273;-72
2023/10/31 00:20:27;;;;;;;26.07;14.00;;;;;;;10.68;100.00;98963.06;6118751;23;20481;-70
2023/10/31 00:22:53;;;;;;;29.20;13.67;;;;;;;10.65;100.00;98960.75;6112798;23;20207;-69
2023/10/31 00:25:21;;;;;;;26.00;13.20;;;;;;;10.60;100.00;98962.13;6118016;23;20474;-70
2023/10/31 00:27:48;;;;;;;31.23;13.47;;;;;;;10.62;100.00;98954.69;6115923;23;20313;-72
2023/10/31 00:30:14;;;;;;;30.30;13.20;;;;;;;10.65;100.00;98953.47;6118157;23;20492;-72
2023/10/31 00:32:41;;;;;;;25.70;12.47;;;;;;;10.64;100.00;98945.53;6113821;23;20269;-73
2023/10/31 00:35:08;;;;;;;26.77;12.40;;;;;;;10.70;100.00;98945.63;6113657;23;20214;-71
2023/10/31 00:37:34;;;;;;;35.83;13.47;;;;;;;10.68;100.00;98941.41;6114656;23;20213;-73
2023/10/31 00:40:01;;;;;;;34.27;13.63;;;;;;;10.71;100.00;98941.06;6113509;23;20459;-71
2023/10/31 00:42:28;;;;;;;28.07;14.07;;;;;;;10.72;100.00;98948.16;6117325;23;20526;-73
2023/10/31 00:45:04;;;;;;;24.90;13.63;;;;;;;10.71;100.00;98941.06;6121604;23;20210;-72
2023/10/31 00:47:30;;;;;;;28.47;13.30;;;;;;;10.75;100.00;98945.06;6115415;23;20211;-70
2023/10/31 00:49:57;;;;;;;25.00;12.57;;;;;;;10.75;100.00;98931.53;6115285;23;20211;-73
2023/10/31 00:52:23;;;;;;;24.37;12.10;;;;;;;10.76;100.00;98916.97;6117630;23;20226;-73
2023/10/31 00:54:50;;;;;;;27.83;11.70;;;;;;;10.81;100.00;98909.13;6117811;23;20206;-71
2023/10/31 00:57:17;;;;;;;20.47;11.17;;;;;;;10.82;100.00;98910.00;6113846;23;20209;-70
2023/10/31 00:59:44;;;;;;;22.90;11.17;;;;;;;10.78;100.00;98896.81;6117865;23;20507;-71
2023/10/31 01:02:11;;;;;;;27.60;11.30;;;;;;;10.79;100.00;98900.38;6088763;23;20211;-71
2023/10/31 01:04:37;;;;;;;27.40;10.40;;;;;;;10.96;100.00;98895.59;6114140;23;20278;-71
2023/10/31 01:07:04;;;;;;;24.23;10.23;;;;;;;10.92;100.00;98892.44;6116635;23;20305;-70
2023/10/31 01:09:41;;;;;;;19.90;9.67;;;;;;;10.99;100.00;98895.22;6115676;23;20836;-71
2023/10/31 01:12:11;;;;;;;25.73;10.50;;;;;;;10.91;100.00;98865.56;6110363;23;20475;-72
2023/10/31 01:14:38;;;;;;;17.10;9.03;;;;;;;10.88;100.00;98866.75;6114472;23;24831;-72
2023/10/31 01:17:05;;;;;;;19.00;9.27;;;;;;;10.87;100.00;98846.16;6101410;23;20214;-71
2023/10/31 01:19:41;;;;;;;27.30;9.97;;;;;;;10.84;100.00;98848.38;6114390;23;20677;-71
2023/10/31 01:22:09;;;;;;;24.27;10.00;;;;;;;10.83;100.00;98835.88;6117730;23;20222;-71
2023/10/31 01:24:36;;;;;;;21.60;9.40;;;;;;;10.81;100.00;98830.63;6115941;23;20202;-72
2023/10/31 01:27:02;;;;;;;18.03;9.43;;;;;;;10.87;100.00;98834.47;6117804;23;20602;-72
2023/10/31 01:29:31;;;;;;;19.67;9.43;;;;;;;10.87;100.00;98839.88;6113334;23;20521;-73
2023/10/31 01:31:57;;;;;;;20.70;9.43;;;;;;;10.85;100.00;98840.06;6114962;23;20873;-71
2023/10/31 01:34:28;;;;;;;18.50;8.73;;;;;;;10.87;100.00;98839.88;6117464;23;20207;-72
2023/10/31 01:36:59;;;;;;;23.07;8.50;;;;;;;10.99;100.00;98840.22;6108077;23;20237;-70
2023/10/31 01:39:26;;;;;;;21.27;9.43;;;;;;;10.98;100.00;98839.41;6139063;23;20210;-72
2023/10/31 01:41:54;;;;;;;21.30;9.37;;;;;;;11.03;100.00;98845.06;6115578;23;20214;-72
2023/10/31 01:44:21;;;;;;;21.47;8.60;;;;;;;11.19;100.00;98854.84;6117028;23;20503;-72
2023/10/31 01:46:48;;;;;;;22.77;9.20;;;;;;;11.20;100.00;98848.41;6089536;23;20212;-72
2023/10/31 01:49:16;;;;;;;20.07;9.20;;;;;;;11.12;100.00;98828.72;6109990;23;20265;-71
2023/10/31 01:51:46;;;;;;;22.13;9.33;;;;;;;11.03;100.00;98811.72;6115647;23;20211;-71
2023/10/31 01:54:14;;;;;;;19.53;9.27;;;;;;;10.97;100.00;98807.09;6113130;23;20521;-71
2023/10/31 01:56:42;;;;;;;17.20;9.70;;;;;;;10.98;100.00;98785.25;6117050;23;20213;-72
2023/10/31 01:59:09;;;;;;;20.03;9.33;;;;;;;10.94;100.00;98762.28;6134883;23;20525;-71
2023/10/31 02:01:38;;;;;;;19.37;8.93;;;;;;;10.87;100.00;98745.13;6118195;23;20211;-72
2023/10/31 02:04:08;;;;;;;18.53;8.73;;;;;;;10.91;100.00;98768.91;6114341;23;20237;-72
2023/10/31 02:06:35;;;;;;;22.73;8.97;;;;;;;10.91;100.00;98743.72;6118169;23;20206;-72
2023/10/31 02:09:02;;;;;;;20.10;9.40;;;;;;;10.92;100.00;98740.81;6115037;23;20265;-72
2023/10/31 02:11:28;;;;;;;17.03;8.57;;;;;;;10.93;100.00;98737.09;6115367;23;20281;-70
2023/10/31 02:14:01;;;;;;;16.83;7.90;;;;;;;11.00;100.00;98739.84;6113971;23;20210;-73
2023/10/31 02:16:28;;;;;;;19.70;8.33;;;;;;;11.15;100.00;98730.81;6117323;23;20206;-71
2023/10/31 02:18:55;;;;;;;19.93;8.13;;;;;;;11.18;100.00;98719.63;6103829;23;20286;-72
2023/10/31 02:21:24;;;;;;;17.67;7.20;;;;;;;11.28;100.00;98711.16;6116391;23;20211;-72
2023/10/31 02:24:01;;;;;;;23.97;7.80;;;;;;;11.32;100.00;98702.44;6116138;23;20207;-71
2023/10/31 02:26:32;;;;;;;12.67;6.90;;;;;;;11.34;100.00;98697.69;6128475;23;20206;-73
2023/10/31 02:29:01;;;;;;;16.00;6.80;;;;;;;11.34;100.00;98699.53;6113257;23;20210;-72
2023/10/31 02:31:27;;;;;;;17.43;7.73;;;;;;;11.30;100.00;98701.81;6117667;23;20230;-73
2023/10/31 02:33:54;;;;;;;13.63;7.20;;;;;;;11.31;100.00;98708.06;6115368;23;20206;-73
2023/10/31 02:36:22;;;;;;;20.37;7.23;;;;;;;11.20;100.00;98690.47;6117566;23;20818;-72
2023/10/31 02:38:48;;;;;;;18.80;8.30;;;;;;;11.26;100.00;98693.22;6114909;23;20234;-72
2023/10/31 02:41:15;;;;;;;13.73;6.90;;;;;;;11.25;100.00;98702.38;6114869;23;20214;-71
2023/10/31 02:43:42;;;;;;;20.17;7.47;;;;;;;11.21;100.00;98698.41;6115027;23;20203;-72
2023/10/31 02:46:12;;;;;;;17.07;7.53;;;;;;;11.25;100.00;98677.19;6117538;23;20215;-72
2023/10/31 02:49:09;;;;;;;15.80;7.67;;;;;;;11.26;100.00;98668.03;6121087;23;20470;-71
2023/10/31 02:51:36;;;;;;;21.30;7.23;;;;;;;11.30;100.00;98663.06;6119899;23;20198;-74
2023/10/31 02:54:03;;;;;;;14.67;7.03;;;;;;;11.34;100.00;98667.03;6115419;23;20261;-72
2023/10/31 02:56:30;;;;;;;16.60;7.07;;;;;;;11.36;100.00;98654.13;6116206;23;20596;-71
2023/10/31 02:59:01;;;;;;;14.77;8.00;;;;;;;11.26;100.00;98647.19;6115067;23;20289;-71
2023/10/31 03:01:28;;;;;;;21.03;7.07;;;;;;;11.29;100.00;98634.28;6112722;23;20214;-72
2023/10/31 03:03:55;;;;;;;14.53;7.63;;;;;;;11.31;100.00;98633.06;6090919;23;20314;-72
2023/10/31 03:06:22;;;;;;;18.63;7.03;;;;;;;11.34;100.00;98623.69;6114423;23;20215;-72
2023/10/31 03:08:49;;;;;;;18.27;7.53;;;;;;;11.34;100.00;98619.13;6114155;23;20261;-73
2023/10/31 03:11:26;;;;;;;18.10;6.93;;;;;;;11.44;100.00;98623.38;6092908;23;20257;-71
2023/10/31 03:13:53;;;;;;;14.40;7.13;;;;;;;11.47;100.00;98622.94;6125532;23;20210;-72
2023/10/31 03:16:21;;;;;;;17.97;6.50;;;;;;;11.50;100.00;98619.84;6116341;23;20221;-71
2023/10/31 03:18:51;;;;;;;16.67;6.73;;;;;;;11.57;100.00;98620.75;6114887;23;20310;-70
2023/10/31 03:21:18;;;;;;;16.53;6.27;;;;;;;11.57;100.00;98610.72;6115985;23;20231;-72
2023/10/31 03:23:49;;;;;;;15.67;6.70;;;;;;;11.57;100.00;98612.59;6116021;23;20207;-71
2023/10/31 03:26:16;;;;;;;16.10;5.97;;;;;;;11.66;100.00;98616.84;6113609;23;20206;-70
2023/10/31 03:28:44;;;;;;;13.93;5.90;;;;;;;11.71;99.69;98606.22;6120208;23;20439;-71
2023/10/31 03:31:12;;;;;;;11.53;6.03;;;;;;;11.80;99.17;98598.75;6117210;23;20273;-73
2023/10/31 03:33:39;;;;;;;17.47;6.10;;;;;;;11.78;99.52;98594.56;6118833;23;20215;-72
2023/10/31 03:36:07;;;;;;;15.67;6.10;;;;;;;11.86;99.05;98597.13;6115092;23;20214;-72
2023/10/31 03:38:35;;;;;;;15.67;5.90;;;;;;;11.89;98.40;98599.44;6117005;23;20274;-72
2023/10/31 03:41:02;;;;;;;13.03;5.70;;;;;;;11.85;98.72;98574.63;6118902;23;20203;-72
2023/10/31 03:43:29;;;;;;;20.17;6.57;;;;;;;11.92;98.11;98581.94;6119203;23;20203;-72
2023/10/31 03:45:55;;;;;;;13.10;5.97;;;;;;;11.91;97.74;98563.97;6124157;23;20281;-71
2023/10/31 03:48:22;;;;;;;14.23;5.67;;;;;;;11.95;97.57;98565.25;6091025;23;20263;-69
2023/10/31 03:50:53;;;;;;;12.23;5.23;;;;;;;12.02;97.04;98549.88;6112010;23;20669;-70
2023/10/31 03:53:19;;;;;;;10.73;4.60;;;;;;;12.06;96.67;98559.28;6116698;23;20289;-71
2023/10/31 03:55:46;;;;;;;16.70;5.70;;;;;;;12.12;96.22;98536.75;6116608;23;20210;-71
2023/10/31 03:58:13;;;;;;;12.37;5.17;;;;;;;12.06;96.47;98540.28;6115619;23;20489;-70
2023/10/31 04:00:40;;;;;;;19.80;5.47;;;;;;;12.08;96.40;98538.22;6114931;23;20207;-71
2023/10/31 04:03:08;;;;;;;13.00;4.93;;;;;;;12.13;95.97;98535.72;6114012;23;20211;-71
2023/10/31 04:05:36;;;;;;;16.77;5.10;;;;;;;12.15;95.99;98539.06;6117307;23;20609;-71
2023/10/31 04:08:02;;;;;;;12.53;5.07;;;;;;;12.18;95.75;98516.13;6112635;23;20310;-72
2023/10/31 04:10:30;;;;;;;12.40;5.27;;;;;;;12.22;95.13;98520.09;6117010;23;20213;-71
2023/10/31 04:12:57;;;;;;;10.50;3.97;;;;;;;12.31;94.53;98518.03;6112693;23;20231;-72
2023/10/31 04:15:24;;;;;;;12.20;5.30;;;;;;;12.41;93.86;98514.91;6115679;23;20198;-72
2023/10/31 04:17:50;;;;;;;9.90;4.37;;;;;;;12.47;93.13;98520.34;6113133;23;20463;-71
2023/10/31 04:20:25;;;;;;;13.20;4.60;;;;;;;12.60;92.37;98507.84;6112986;23;20203;-72
2023/10/31 04:22:51;;;;;;;11.00;4.80;;;;;;;12.49;92.51;98496.53;6115025;23;20202;-71
2023/10/31 04:25:18;;;;;;;13.77;4.17;;;;;;;12.54;92.19;98486.97;6116367;23;20213;-70
2023/10/31 04:27:45;;;;;;;9.30;4.03;;;;;;;12.66;90.96;98482.56;6112731;23;20207;-71
2023/10/31 04:30:11;;;;;;;13.40;4.13;;;;;;;12.67;91.15;98497.81;6115933;23;20211;-71
2023/10/31 04:32:40;;;;;;;14.43;4.30;;;;;;;12.75;90.51;98491.31;6113692;23;20210;-71
2023/10/31 04:35:07;;;;;;;11.67;4.20;;;;;;;12.82;89.78;98490.28;6115270;23;20242;-69
2023/10/31 04:37:34;;;;;;;17.63;4.27;;;;;;;12.82;89.95;98479.44;6091694;23;20258;-72
2023/10/31 04:40:01;;;;;;;12.87;4.70;;;;;;;12.84;89.55;98479.22;6115089;23;20238;-71
2023/10/31 04:42:27;;;;;;;10.33;4.30;;;;;;;12.88;89.02;98452.47;6114668;23;20215;-70
2023/10/31 04:44:54;;;;;;;10.80;4.07;;;;;;;12.89;89.17;98454.97;6118149;23;20211;-70
2023/10/31 04:47:20;;;;;;;12.40;4.17;;;;;;;12.86;89.21;98444.53;6115564;23;20238;-70
2023/10/31 04:49:47;;;;;;;12.13;4.13;;;;;;;12.86;89.42;98449.13;6115964;23;20207;-72
2023/10/31 04:52:17;;;;;;;9.07;4.33;;;;;;;12.85;89.06;98437.44;6089467;23;20221;-71
2023/10/31 04:54:43;;;;;;;10.70;4.03;;;;;;;12.89;88.77;98421.56;6114733;23;20471;-73
2023/10/31 04:57:11;;;;;;;12.47;4.37;;;;;;;12.91;88.71;98436.59;6111939;23;20207;-70
2023/10/31 05:00:06;;;;;;;14.00;4.50;;;;;;;12.93;88.27;98420.91;6117789;23;20740;-72
2023/10/31 05:02:33;;;;;;;11.03;4.03;;;;;;;13.00;87.95;98424.44;6115383;23;20261;-72
2023/10/31 05:05:01;;;;;;;10.63;4.50;;;;;;;13.06;87.33;98419.22;6117416;23;20433;-73
2023/10/31 05:07:28;;;;;;;11.17;4.30;;;;;;;13.08;87.18;98408.97;6113467;23;20234;-72
2023/10/31 05:09:54;;;;;;;10.30;3.80;;;;;;;13.08;86.73;98401.63;6115613;23;20266;-72
2023/10/31 05:12:21;;;;;;;10.57;4.00;;;;;;;13.09;86.98;98387.00;6110707;23;20229;-72
2023/10/31 05:14:48;;;;;;;10.40;4.10;;;;;;;13.18;85.95;98393.03;6114828;23;20207;-72
2023/10/31 05:17:19;;;;;;;12.13;3.97;;;;;;;13.18;85.80;98381.34;6114601;23;20294;-72
2023/10/31 05:19:45;;;;;;;11.57;4.00;;;;;;;13.15;85.45;98388.88;6116733;23;20219;-73
2023/10/31 05:22:12;;;;;;;10.23;3.87;;;;;;;13.28;84.96;98370.88;6113911;23;20625;-72
2023/10/31 05:24:38;;;;;;;13.50;4.17;;;;;;;13.33;84.26;98371.03;6115285;23;20206;-72
2023/10/31 05:27:07;;;;;;;14.67;4.17;;;;;;;13.31;84.54;98382.13;6114702;23;20203;-73
2023/10/31 05:29:34;;;;;;;11.70;4.03;;;;;;;13.46;83.16;98372.91;6116180;23;20270;-72
2023/10/31 05:32:01;;;;;;;13.60;4.20;;;;;;;13.38;83.79;98371.25;6117435;23;20210;-73
2023/10/31 05:34:27;;;;;;;11.03;3.63;;;;;;;13.37;83.63;98380.41;6093095;23;20797;-72
2023/10/31 05:36:55;;;;;;;13.70;4.03;;;;;;;13.49;82.71;98379.78;6113981;23;20276;-72
2023/10/31 05:39:21;;;;;;;11.87;3.73;;;;;;;13.50;82.83;98381.44;6117648;23;20600;-71
2023/10/31 05:41:49;;;;;;;12.00;3.70;;;;;;;13.58;82.16;98381.19;6091720;23;20281;-72
2023/10/31 05:44:15;;;;;;;10.30;4.00;;;;;;;13.62;82.07;98382.41;6115440;23;20207;-71
2023/10/31 05:46:51;;;;;;;10.50;4.07;;;;;;;13.60;82.08;98388.06;6126085;23;20216;-71
2023/10/31 05:49:19;;;;;;;11.67;3.53;;;;;;;13.68;81.87;98386.97;6113601;23;20210;-70
2023/10/31 05:51:52;;;;;;;11.17;3.57;;;;;;;13.68;82.44;98386.16;6091185;23;20238;-71
2023/10/31 05:54:19;;;;;;;9.73;4.17;;;;;;;13.63;82.82;98371.31;6124560;23;20603;-71
2023/10/31 05:56:46;;;;;;;10.70;3.90;;;;;;;13.43;84.36;98355.13;6104401;23;20207;-71
2023/10/31 05:59:13;;;;;;;10.13;4.40;;;;;;;13.36;84.92;98370.63;6116236;23;20266;-70
2023/10/31 06:01:39;;;;;;;14.43;4.43;;;;;;;13.39;84.51;98372.91;6112676;23;20218;-69
2023/10/31 06:04:07;;;;;;;14.03;4.03;;;;;;;13.60;82.28;98357.31;6114498;23;20393;-70
2023/10/31 06:06:37;;;;;;;13.63;3.80;;;;;;;13.65;82.29;98364.81;6118081;23;20470;-70
2023/10/31 06:09:14;;;;;;;11.60;3.30;;;;;;;13.70;81.40;98362.31;6112123;23;20281;-68
2023/10/31 06:11:42;;;;;;;8.47;3.50;;;;;;;13.69;82.15;98376.94;6116752;23;20210;-71
2023/10/31 06:14:09;;;;;;;13.33;3.70;;;;;;;13.77;80.97;98371.25;6110998;23;20218;-72
2023/10/31 06:16:43;;;;;;;10.87;3.43;;;;;;;13.76;81.37;98394.06;6114808;23;20811;-73
2023/10/31 06:19:11;;;;;;;15.43;4.20;;;;;;;13.75;81.18;98393.22;6122938;23;20683;-72
2023/10/31 06:21:38;;;;;;;13.20;3.60;;;;;;;13.81;81.32;98387.97;6112717;23;20207;-70
2023/10/31 06:24:05;;;;;;;12.67;3.67;;;;;;;13.84;80.92;98382.91;6140495;23;20211;-73
2023/10/31 06:26:32;;;;;;;11.50;3.50;;;;;;;13.87;80.89;98378.91;6118888;23;20309;-73
2023/10/31 06:28:59;;;;;;;10.17;3.63;;;;;;;13.77;81.85;98368.53;6118891;23;20615;-73
2023/10/31 06:31:48;;;;;;;10.70;3.30;;;;;;;14.01;79.80;98387.84;6123478;23;20765;-76
2023/10/31 06:34:24;;;;;;;18.73;3.90;;;;;;;13.99;80.16;98381.78;6128234;23;20286;-72
2023/10/31 06:36:54;;;;;;;10.73;3.83;;;;;;;13.99;79.92;98370.88;6117151;23;20266;-72
2023/10/31 06:39:22;;;;;;;9.50;3.30;;;;;;;14.04;80.08;98369.19;6109873;23;20262;-71
2023/10/31 06:41:55;;;;;;;11.70;3.60;;;;;;;14.10;79.84;98365.56;6099505;23;20203;-71
2023/10/31 06:44:23;;;;;;;12.63;3.17;;;;;;;14.07;80.29;98365.19;6113349;23;20211;-71
2023/10/31 06:46:49;;;;;;;6.60;3.07;;;;;;;14.08;79.57;98367.66;6115780;23;20203;-70
2023/10/31 06:49:16;;;;;;;11.23;3.60;;;;;;;14.00;80.06;98367.13;6133430;23;20237;-71
2023/10/31 06:51:43;;;;;;;6.93;3.50;;;;;;;13.99;80.54;98376.34;6116014;23;20686;-71
2023/10/31 06:54:09;;;;;;;13.27;3.47;;;;;;;14.01;80.38;98369.63;6112365;23;20256;-69
2023/10/31 06:56:36;;;;;;;17.30;4.17;;;;;;;14.01;80.93;98380.50;6116396;23;20199;-68
2023/10/31 06:59:04;;;;;;;10.10;3.53;;;;;;;14.02;80.52;98362.28;6111202;23;20639;-69
2023/10/31 07:01:31;;;;;;;12.47;3.77;;;;;;;14.00;81.11;98370.66;6116674;23;20929;-71
2023/10/31 07:04:03;;;;;;;9.87;3.53;;;;;;;14.04;80.79;98361.03;6110802;23;20238;-69
2023/10/31 07:06:30;;;;;;;10.17;4.03;;;;;;;13.97;80.72;98354.81;6115006;23;20210;-70
2023/10/31 07:08:57;;;;;;;15.43;3.77;;;;;;;14.06;80.21;98345.28;6111505;23;20198;-72
2023/10/31 07:11:24;;;;;;;7.97;3.33;;;;;;;14.06;80.21;98360.78;6091310;23;20258;-70
2023/10/31 07:13:50;;;;;;;14.10;3.93;;;;;;;14.02;80.31;98354.97;6086540;23;20206;-68
2023/10/31 07:16:18;;;;;;;9.77;3.90;;;;;;;14.06;80.40;98374.41;6114265;23;20206;-71
2023/10/31 07:18:48;;;;;;;8.10;3.80;;;;;;;13.99;81.27;98352.66;6112668;23;20211;-72
2023/10/31 07:21:15;;;;;;;11.57;3.40;;;;;;;14.00;81.42;98346.19;6112322;23;20281;-68
2023/10/31 07:23:41;;;;;;;9.90;3.40;;;;;;;13.99;81.13;98349.13;6108840;23;20270;-69
2023/10/31 07:26:09;;;;;;;21.70;4.20;;;;;;;13.97;81.26;98343.91;6110414;23;20262;-71
2023/10/31 07:28:37;;;;;;;9.53;3.83;;;;;;;13.99;80.76;98332.81;6110137;23;20211;-71
2023/10/31 07:31:04;;;;;;;11.33;3.60;;;;;;;14.06;80.05;98331.69;6112900;23;20202;-68
2023/10/31 07:33:32;;;;;;;15.87;4.40;;;;;;;14.08;79.76;98320.59;6111196;23;20278;-69
2023/10/31 07:35:59;;;;;;;13.63;3.97;;;;;;;14.10;79.64;98327.47;6116008;23;20638;-68
2023/10/31 07:38:25;;;;;;;7.73;3.37;;;;;;;14.21;78.71;98335.94;6086630;23;20254;-73
2023/10/31 07:40:52;;;;;;;12.40;3.67;;;;;;;14.23;78.65;98312.94;6092207;23;20210;-69
2023/10/31 07:43:42;;;;;;;11.77;3.83;;;;;;;14.20;78.57;98315.25;6122997;23;20198;-69
2023/10/31 07:46:09;;;;;;;10.03;3.60;;;;;;;14.25;78.32;98321.69;6107911;23;20203;-70
2023/10/31 07:48:36;;;;;;;12.27;3.53;;;;;;;14.28;78.12;98325.84;6086584;23;20221;-71
2023/10/31 07:51:03;;;;;;;16.87;3.80;;;;;;;14.29;78.48;98337.56;6114348;23;20206;-69
2023/10/31 07:53:30;;;;;;;14.03;3.87;;;;;;;14.35;78.00;98348.38;6117008;23;20217;-69
2023/10/31 07:55:58;;;;;;;8.13;3.30;;;;;;;14.31;78.56;98343.63;6113723;23;20214;-73
2023/10/31 07:58:25;;;;;;;15.30;3.43;;;;;;;14.33;78.02;98331.47;6110865;23;20210;-69
2023/10/31 08:00:51;;;;;;;11.77;3.80;;;;;;;14.32;78.90;98334.38;6114729;23;20207;-69
2023/10/31 08:03:18;;;;;;;11.47;3.40;;;;;;;14.26;78.65;98293.41;6083141;23;20203;-69
2023/10/31 08:05:45;;;;;;;10.03;3.27;;;;;;;14.27;78.92;98303.25;6115089;23;20222;-70
2023/10/31 08:08:11;;;;;;;10.50;3.33;;;;;;;14.42;77.40;98289.28;6116353;23;20533;-70
2023/10/31 08:10:38;;;;;;;8.50;2.97;;;;;;;14.50;77.13;98301.75;6115774;23;20214;-72
2023/10/31 08:13:05;;;;;;;18.70;3.63;;;;;;;14.53;76.98;98298.59;6113145;23;20261;-71
2023/10/31 08:15:35;;;;;;;8.93;3.13;;;;;;;14.60;76.12;98301.22;6114437;23;20892;-70
2023/10/31 08:18:01;;;;;;;9.10;3.40;;;;;;;14.56;76.62;98300.84;6118139;23;20458;-69
2023/10/31 08:20:33;;;;;;;9.20;3.30;;;;;;;14.66;76.05;98304.97;6112417;23;20630;-73
2023/10/31 08:22:59;;;;;;;10.37;2.80;;;;;;;14.75;75.43;98314.53;6114615;23;20269;-71
2023/10/31 08:25:26;;;;;;;5.83;2.73;;;;;;;14.82;74.87;98307.09;6111170;23;20206;-70
2023/10/31 08:27:53;;;;;;;6.20;3.07;;;;;;;14.85;74.74;98292.19;6113778;23;20218;-72
2023/10/31 08:30:20;;;;;;;8.93;3.20;;;;;;;14.92;74.37;98292.94;6114345;23;20525;-70
2023/10/31 08:32:46;;;;;;;13.73;3.17;;;;;;;14.93;73.92;98271.97;6115507;23;20678;-72
2023/10/31 08:35:17;;;;;;;7.40;2.93;;;;;;;15.07;72.79;98286.25;6112083;23;20658;-71
2023/10/31 08:37:48;;;;;;;10.67;3.10;;;;;;;15.16;72.13;98274.81;6112912;23;20296;-70
2023/10/31 08:40:15;;;;;;;11.13;2.93;;;;;;;15.28;71.98;98283.03;6113264;23;20580;-71
2023/10/31 08:42:41;;;;;;;11.40;2.90;;;;;;;15.42;71.76;98286.41;6113562;23;20297;-67
2023/10/31 08:45:18;;;;;;;8.47;3.30;;;;;;;15.56;71.25;98272.56;6086005;23;20206;-69
2023/10/31 08:47:44;;;;;;;17.87;3.80;;;;;;;15.64;70.85;98300.31;6080485;23;20206;-69
2023/10/31 08:50:12;;;;;;;10.87;3.63;;;;;;;15.72;70.38;98292.88;6106847;23;20636;-69
2023/10/31 08:52:38;;;;;;;7.37;3.43;;;;;;;15.79;70.34;98299.91;6112167;23;20526;-71
2023/10/31 08:55:07;;;;;;;9.60;2.60;;;;;;;15.75;70.26;98276.06;6082505;23;20231;-72
2023/10/31 08:57:57;;;;;;;8.60;2.90;;;;;;;15.77;69.34;98312.13;6117102;23;20591;-70
2023/10/31 09:00:49;;;;;;;10.33;3.53;;;;;;;15.77;69.39;98287.56;6119968;23;20218;-70
2023/10/31 09:03:16;;;;;;;5.47;2.97;;;;;;;15.83;69.12;98287.47;6110228;23;20301;-71
2023/10/31 09:05:44;;;;;;;10.20;3.00;;;;;;;15.87;68.41;98267.91;6113586;23;20521;-70
2023/10/31 09:08:14;;;;;;;10.60;2.80;;;;;;;15.86;68.32;98291.66;6089126;23;20275;-73
2023/10/31 09:10:42;;;;;;;12.00;2.83;;;;;;;15.91;68.14;98280.84;6109299;23;20211;-77
2023/10/31 09:13:10;;;;;;;9.83;3.07;;;;;;;15.93;68.28;98289.66;6113225;23;20223;-71
2023/10/31 09:15:38;;;;;;;11.93;3.37;;;;;;;15.89;68.53;98273.97;6111402;23;20211;-72
2023/10/31 09:18:06;;;;;;;8.20;2.70;;;;;;;15.90;68.28;98289.28;6115540;23;20213;-70
2023/10/31 09:20:33;;;;;;;10.03;3.20;;;;;;;15.79;68.77;98289.00;6112578;23;20210;-72
2023/10/31 09:23:00;;;;;;;12.03;3.13;;;;;;;15.76;69.13;98283.16;6114581;23;21105;-72
2023/10/31 09:25:27;;;;;;;14.10;3.07;;;;;;;15.72;69.30;98279.22;6106270;23;20429;-71
2023/10/31 09:27:54;;;;;;;8.77;2.97;;;;;;;15.78;69.01;98302.88;6090395;23;20223;-71
2023/10/31 09:30:22;;;;;;;8.83;2.70;;;;;;;15.75;68.80;98297.88;6085464;23;20257;-69
2023/10/31 09:32:49;;;;;;;7.13;2.83;;;;;;;15.71;68.97;98292.06;6111727;23;20207;-68
2023/10/31 09:35:15;;;;;;;9.37;3.17;;;;;;;15.74;68.52;98307.13;6108582;23;20210;-72
2023/10/31 09:37:43;;;;;;;6.97;2.90;;;;;;;15.82;68.81;98306.78;6113229;23;20222;-73
2023/10/31 09:40:10;;;;;;;10.33;3.57;;;;;;;15.68;69.57;98322.50;6111880;23;20689;-72
2023/10/31 09:42:37;;;;;;;7.33;3.27;;;;;;;15.59;70.47;98313.03;6113539;23;20215;-66
2023/10/31 09:45:08;;;;;;;10.73;3.40;;;;;;;15.62;69.98;98312.53;6112486;23;20693;-66
2023/10/31 09:47:34;;;;;;;10.33;3.20;;;;;;;15.56;70.23;98318.94;6115153;23;20480;-66
2023/10/31 09:50:01;;;;;;;10.00;3.57;;;;;;;15.68;69.60;98307.00;6104984;23;20214;-68
2023/10/31 09:52:29;;;;;;;9.87;2.67;;;;;;;15.69;69.08;98303.22;6115322;23;20636;-69
2023/10/31 09:54:56;;;;;;;6.97;3.33;;;;;;;15.79;69.10;98309.97;6111509;23;20269;-67
2023/10/31 09:57:23;;;;;;;10.57;3.40;;;;;;;15.86;69.11;98315.34;6082190;23;20230;-67
2023/10/31 09:59:49;;;;;;;6.37;2.80;;;;;;;15.93;68.14;98313.34;6107323;23;20211;-67
2023/10/31 10:02:40;;;;;;;11.07;3.30;;;;;;;16.03;67.84;98308.16;6117635;23;20595;-68
2023/10/31 10:05:32;;;;;;;8.77;3.13;;;;;;;16.00;67.67;98303.16;6090527;23;20417;-64
2023/10/31 10:08:07;;;;;;;12.87;3.23;;;;;;;16.06;67.31;98310.41;6093999;23;20305;-65
2023/10/31 10:10:37;;;;;;;16.43;3.33;;;;;;;16.03;67.42;98302.69;6110251;23;20265;-71
2023/10/31 10:13:04;;;;;;;9.80;3.40;;;;;;;16.06;67.31;98306.84;6113823;23;20232;-71
2023/10/31 10:15:48;;;;;;;9.97;3.43;;;;;;;16.08;67.36;98318.38;6112138;23;20214;-71
2023/10/31 10:18:29;;;;;;;12.00;3.10;;;;;;;16.26;66.73;98314.72;6118216;23;20215;-72
2023/10/31 10:21:00;;;;;;;11.57;2.93;;;;;;;16.28;67.02;98304.34;6112197;23;20643;-72
2023/10/31 10:23:27;;;;;;;10.83;3.07;;;;;;;16.41;66.63;98308.75;6110557;23;20203;-63
2023/10/31 10:25:57;;;;;;;9.90;2.90;;;;;;;16.55;66.26;98314.81;6108181;23;20226;-69
2023/10/31 10:28:25;;;;;;;11.43;3.00;;;;;;;16.51;66.28;98309.00;6109524;23;20210;-70
2023/10/31 10:30:53;;;;;;;10.40;3.33;;;;;;;16.62;66.08;98319.06;6112041;23;20286;-70
2023/10/31 10:33:21;;;;;;;14.43;3.07;;;;;;;16.53;66.08;98325.97;6027047;23;20231;-71
2023/10/31 10:35:48;;;;;;;12.27;3.43;;;;;;;16.65;66.29;98323.25;6113718;23;20218;-71
2023/10/31 10:38:18;;;;;;;12.63;3.60;;;;;;;16.63;66.38;98318.00;6086428;23;20223;-69
2023/10/31 10:40:47;;;;;;;10.97;3.30;;;;;;;16.69;66.14;98327.16;6114839;23;20285;-71
2023/10/31 10:43:20;;;;;;;7.80;3.13;;;;;;;16.66;66.50;98311.22;6111185;23;20754;-72
2023/10/31 10:45:55;;;;;;;9.43;2.93;;;;;;;16.73;66.72;98311.09;6111512;23;20239;-72
2023/10/31 10:48:24;;;;;;;10.10;3.13;;;;;;;16.85;66.22;98311.09;6112629;23;20210;-71
2023/10/31 10:50:59;;;;;;;8.13;3.07;;;;;;;16.80;66.46;98307.16;6113075;23;20249;-72
2023/10/31 10:53:35;;;;;;;10.73;2.97;;;;;;;16.90;66.37;98309.31;6109433;23;20213;-73
2023/10/31 10:56:11;;;;;;;9.20;3.10;;;;;;;17.07;66.20;98312.13;6110842;23;20206;-72
2023/10/31 10:59:06;;;;;;;11.50;2.50;;;;;;;17.21;65.88;98309.97;6113200;23;20224;-71
2023/10/31 11:01:35;;;;;;;10.17;2.63;;;;;;;17.25;66.10;98311.13;6118568;23;20803;-71
2023/10/31 11:04:03;;;;;;;9.87;2.53;;;;;;;17.31;66.15;98314.78;6114012;23;20207;-71
2023/10/31 11:06:30;;;;;;;8.33;2.17;;;;;;;17.35;65.94;98315.13;6115971;23;20203;-71
2023/10/31 11:08:58;;;;;;;8.23;2.40;;;;;;;17.52;65.81;98323.38;6112911;23;20203;-71
2023/10/31 11:11:24;;;;;;;5.40;2.27;;;;;;;17.49;65.81;98319.22;6117246;23;20261;-70
2023/10/31 11:13:56;;;;;;;9.33;2.30;;;;;;;17.48;65.94;98314.00;6110025;23;20302;-72
2023/10/31 11:16:37;;;;;;;6.47;2.50;;;;;;;17.57;66.49;98326.19;6114659;23;20207;-40
2023/10/31 11:19:04;;;;;;;7.23;2.40;;;;;;;17.50;66.40;98333.72;6117423;23;20225;-68
2023/10/31 11:21:34;;;;;;;8.30;2.37;;;;;;;17.36;66.94;98339.50;6112006;23;20257;-69
2023/10/31 11:24:01;;;;;;;8.40;2.50;;;;;;;17.34;67.14;98332.59;6102481;23;20202;-67
2023/10/31 11:26:30;;;;;;;8.07;2.57;;;;;;;17.33;67.10;98328.22;6114509;23;20206;-69
2023/10/31 11:29:08;;;;;;;5.57;1.93;;;;;;;17.21;67.73;98320.03;6088155;23;20983;-67
2023/10/31 11:31:37;;;;;;;7.30;1.80;;;;;;;17.17;68.16;98347.03;6088818;23;20227;-70